sensor_id;sensor_type;location;lat;lon;timestamp;temperature;humidity
802;DHT22;383;48.766;9.270;2023-08-06T00:00:38;17.70;99.90
802;DHT22;383;48.766;9.270;2023-08-06T00:03:05;17.70;99.90
802;DHT22;383;48.766;9.270;2023-08-06T00:05:31;17.80;99.90
802;DHT22;383;48.766;9.270;2023-08-06T00:07:58;17.80;99.40
802;DHT22;383;48.766;9.270;2023-08-06T00:10:25;17.90;99.20
802;DHT22;383;48.766;9.270;2023-08-06T00:12:51;17.80;99.00
802;DHT22;383;48.766;9.270;2023-08-06T00:15:19;17.90;98.60
802;DHT22;383;48.766;9.270;2023-08-06T00:17:46;17.70;98.60
802;DHT22;383;48.766;9.270;2023-08-06T00:20:13;17.60;99.00
802;DHT22;383;48.766;9.270;2023-08-06T00:22:39;17.60;99.20
802;DHT22;383;48.766;9.270;2023-08-06T00:25:07;17.50;99.30
802;DHT22;383;48.766;9.270;2023-08-06T00:27:33;17.40;99.10
802;DHT22;383;48.766;9.270;2023-08-06T00:30:00;17.30;99.30
802;DHT22;383;48.766;9.270;2023-08-06T00:32:28;17.30;99.30
802;DHT22;383;48.766;9.270;2023-08-06T00:34:55;17.20;99.10
802;DHT22;383;48.766;9.270;2023-08-06T00:37:22;17.20;99.10
802;DHT22;383;48.766;9.270;2023-08-06T00:39:48;17.10;99.00
802;DHT22;383;48.766;9.270;2023-08-06T00:42:15;17.10;98.70
802;DHT22;383;48.766;9.270;2023-08-06T00:44:46;17.00;98.60
802;DHT22;383;48.766;9.270;2023-08-06T00:47:13;16.90;98.90
802;DHT22;383;48.766;9.270;2023-08-06T00:49:41;16.90;99.00
802;DHT22;383;48.766;9.270;2023-08-06T00:52:08;16.80;99.20
802;DHT22;383;48.766;9.270;2023-08-06T00:54:35;16.70;99.40
802;DHT22;383;48.766;9.270;2023-08-06T00:57:03;16.70;99.60
802;DHT22;383;48.766;9.270;2023-08-06T00:59:31;16.60;99.60
802;DHT22;383;48.766;9.270;2023-08-06T01:01:58;16.60;99.60
802;DHT22;383;48.766;9.270;2023-08-06T01:04:24;16.60;99.80
802;DHT22;383;48.766;9.270;2023-08-06T01:07:00;16.50;99.70
802;DHT22;383;48.766;9.270;2023-08-06T01:09:35;16.50;99.90
802;DHT22;383;48.766;9.270;2023-08-06T01:12:09;16.50;99.70
802;DHT22;383;48.766;9.270;2023-08-06T01:14:46;16.40;99.70
802;DHT22;383;48.766;9.270;2023-08-06T01:17:14;16.30;99.90
802;DHT22;383;48.766;9.270;2023-08-06T01:19:41;16.30;99.90
802;DHT22;383;48.766;9.270;2023-08-06T01:22:09;16.30;99.90
802;DHT22;383;48.766;9.270;2023-08-06T01:24:36;16.20;99.90
802;DHT22;383;48.766;9.270;2023-08-06T01:27:08;16.20;99.90
802;DHT22;383;48.766;9.270;2023-08-06T01:29:41;16.20;99.80
802;DHT22;383;48.766;9.270;2023-08-06T01:32:09;16.10;99.90
802;DHT22;383;48.766;9.270;2023-08-06T01:34:38;16.20;99.90
802;DHT22;383;48.766;9.270;2023-08-06T01:37:05;16.20;99.90
802;DHT22;383;48.766;9.270;2023-08-06T01:39:34;16.20;99.90
802;DHT22;383;48.766;9.270;2023-08-06T01:42:01;16.20;99.90
802;DHT22;383;48.766;9.270;2023-08-06T01:44:28;16.20;99.90
802;DHT22;383;48.766;9.270;2023-08-06T01:46:54;16.30;99.90
802;DHT22;383;48.766;9.270;2023-08-06T01:49:21;16.30;99.90
802;DHT22;383;48.766;9.270;2023-08-06T01:51:48;16.40;99.90
802;DHT22;383;48.766;9.270;2023-08-06T01:54:14;16.40;99.90
802;DHT22;383;48.766;9.270;2023-08-06T01:56:42;16.40;99.90
802;DHT22;383;48.766;9.270;2023-08-06T01:59:09;16.50;99.90
802;DHT22;383;48.766;9.270;2023-08-06T02:01:36;16.50;99.90
802;DHT22;383;48.766;9.270;2023-08-06T02:04:03;16.50;99.90
802;DHT22;383;48.766;9.270;2023-08-06T02:06:29;16.50;99.90
802;DHT22;383;48.766;9.270;2023-08-06T02:08:56;16.50;99.90
802;DHT22;383;48.766;9.270;2023-08-06T02:11:23;16.50;99.60
802;DHT22;383;48.766;9.270;2023-08-06T02:13:51;16.50;99.50
802;DHT22;383;48.766;9.270;2023-08-06T02:16:18;16.40;99.30
802;DHT22;383;48.766;9.270;2023-08-06T02:18:44;16.40;98.70
802;DHT22;383;48.766;9.270;2023-08-06T02:21:11;16.40;98.40
802;DHT22;383;48.766;9.270;2023-08-06T02:23:37;16.30;98.20
802;DHT22;383;48.766;9.270;2023-08-06T02:26:04;16.30;97.90
802;DHT22;383;48.766;9.270;2023-08-06T02:28:31;16.10;97.40
802;DHT22;383;48.766;9.270;2023-08-06T02:30:59;16.10;97.30
802;DHT22;383;48.766;9.270;2023-08-06T02:33:26;16.00;97.00
802;DHT22;383;48.766;9.270;2023-08-06T02:35:59;16.00;97.50
802;DHT22;383;48.766;9.270;2023-08-06T02:38:25;15.90;97.10
802;DHT22;383;48.766;9.270;2023-08-06T02:40:52;15.90;97.00
802;DHT22;383;48.766;9.270;2023-08-06T02:43:19;15.90;96.90
802;DHT22;383;48.766;9.270;2023-08-06T02:45:46;15.80;96.70
802;DHT22;383;48.766;9.270;2023-08-06T02:48:14;15.70;96.50
802;DHT22;383;48.766;9.270;2023-08-06T02:50:41;15.70;96.60
802;DHT22;383;48.766;9.270;2023-08-06T02:53:08;15.60;96.60
802;DHT22;383;48.766;9.270;2023-08-06T02:55:35;15.60;96.70
802;DHT22;383;48.766;9.270;2023-08-06T02:58:02;15.60;97.00
802;DHT22;383;48.766;9.270;2023-08-06T03:00:29;15.60;96.50
802;DHT22;383;48.766;9.270;2023-08-06T03:02:56;15.60;96.50
802;DHT22;383;48.766;9.270;2023-08-06T03:05:24;15.60;96.70
802;DHT22;383;48.766;9.270;2023-08-06T03:07:50;15.60;96.50
802;DHT22;383;48.766;9.270;2023-08-06T03:10:17;15.50;96.80
802;DHT22;383;48.766;9.270;2023-08-06T03:12:45;15.50;96.60
802;DHT22;383;48.766;9.270;2023-08-06T03:15:12;15.50;96.40
802;DHT22;383;48.766;9.270;2023-08-06T03:17:38;15.50;96.20
802;DHT22;383;48.766;9.270;2023-08-06T03:20:06;15.50;95.90
802;DHT22;383;48.766;9.270;2023-08-06T03:22:34;15.50;95.60
802;DHT22;383;48.766;9.270;2023-08-06T03:25:01;15.50;95.50
802;DHT22;383;48.766;9.270;2023-08-06T03:27:27;15.60;94.90
802;DHT22;383;48.766;9.270;2023-08-06T03:29:54;15.60;95.50
802;DHT22;383;48.766;9.270;2023-08-06T03:32:21;15.70;95.60
802;DHT22;383;48.766;9.270;2023-08-06T03:34:48;15.80;95.60
802;DHT22;383;48.766;9.270;2023-08-06T03:37:14;15.80;95.70
802;DHT22;383;48.766;9.270;2023-08-06T03:39:42;15.80;95.10
802;DHT22;383;48.766;9.270;2023-08-06T03:42:09;15.90;94.50
802;DHT22;383;48.766;9.270;2023-08-06T03:44:36;15.90;94.90
802;DHT22;383;48.766;9.270;2023-08-06T03:47:03;15.80;94.70
802;DHT22;383;48.766;9.270;2023-08-06T03:49:29;15.90;94.50
802;DHT22;383;48.766;9.270;2023-08-06T03:51:56;15.90;94.50
802;DHT22;383;48.766;9.270;2023-08-06T03:54:23;16.00;94.60
802;DHT22;383;48.766;9.270;2023-08-06T03:56:51;16.00;95.00
802;DHT22;383;48.766;9.270;2023-08-06T03:59:17;16.00;94.80
802;DHT22;383;48.766;9.270;2023-08-06T04:01:44;16.00;95.50
802;DHT22;383;48.766;9.270;2023-08-06T04:04:11;15.90;95.50
802;DHT22;383;48.766;9.270;2023-08-06T04:06:37;16.00;95.10
802;DHT22;383;48.766;9.270;2023-08-06T04:09:04;15.90;95.30
802;DHT22;383;48.766;9.270;2023-08-06T04:11:31;15.90;95.40
802;DHT22;383;48.766;9.270;2023-08-06T04:13:59;16.00;95.60
802;DHT22;383;48.766;9.270;2023-08-06T04:16:25;16.00;96.10
802;DHT22;383;48.766;9.270;2023-08-06T04:18:52;16.00;95.40
802;DHT22;383;48.766;9.270;2023-08-06T04:21:20;16.00;95.40
802;DHT22;383;48.766;9.270;2023-08-06T04:23:47;16.00;95.80
802;DHT22;383;48.766;9.270;2023-08-06T04:26:14;16.00;95.90
802;DHT22;383;48.766;9.270;2023-08-06T04:28:41;16.00;95.90
802;DHT22;383;48.766;9.270;2023-08-06T04:31:09;16.00;96.00
802;DHT22;383;48.766;9.270;2023-08-06T04:33:35;16.00;96.00
802;DHT22;383;48.766;9.270;2023-08-06T04:36:02;16.00;96.30
802;DHT22;383;48.766;9.270;2023-08-06T04:38:29;16.00;96.50
802;DHT22;383;48.766;9.270;2023-08-06T04:40:56;16.00;97.00
802;DHT22;383;48.766;9.270;2023-08-06T04:43:22;16.00;97.30
802;DHT22;383;48.766;9.270;2023-08-06T04:45:51;16.00;97.60
802;DHT22;383;48.766;9.270;2023-08-06T04:48:20;16.00;97.80
802;DHT22;383;48.766;9.270;2023-08-06T04:50:48;16.00;98.00
802;DHT22;383;48.766;9.270;2023-08-06T04:53:15;16.00;97.60
802;DHT22;383;48.766;9.270;2023-08-06T04:55:42;16.00;97.50
802;DHT22;383;48.766;9.270;2023-08-06T04:58:10;15.90;97.90
802;DHT22;383;48.766;9.270;2023-08-06T05:00:36;15.90;98.30
802;DHT22;383;48.766;9.270;2023-08-06T05:03:03;15.80;98.40
802;DHT22;383;48.766;9.270;2023-08-06T05:05:31;15.90;98.80
802;DHT22;383;48.766;9.270;2023-08-06T05:07:58;15.90;98.40
802;DHT22;383;48.766;9.270;2023-08-06T05:10:25;15.90;98.40
802;DHT22;383;48.766;9.270;2023-08-06T05:12:51;15.90;98.50
802;DHT22;383;48.766;9.270;2023-08-06T05:15:18;16.00;98.20
802;DHT22;383;48.766;9.270;2023-08-06T05:17:45;16.00;98.60
802;DHT22;383;48.766;9.270;2023-08-06T05:20:12;16.10;98.50
802;DHT22;383;48.766;9.270;2023-08-06T05:22:40;16.10;98.60
802;DHT22;383;48.766;9.270;2023-08-06T05:25:07;16.20;98.40
802;DHT22;383;48.766;9.270;2023-08-06T05:27:34;16.30;97.30
802;DHT22;383;48.766;9.270;2023-08-06T05:30:00;16.30;97.20
802;DHT22;383;48.766;9.270;2023-08-06T05:32:27;16.30;97.00
802;DHT22;383;48.766;9.270;2023-08-06T05:34:54;16.30;97.10
802;DHT22;383;48.766;9.270;2023-08-06T05:37:20;16.30;96.40
802;DHT22;383;48.766;9.270;2023-08-06T05:39:49;16.40;96.50
802;DHT22;383;48.766;9.270;2023-08-06T05:42:16;16.50;96.90
802;DHT22;383;48.766;9.270;2023-08-06T05:44:42;16.70;97.30
802;DHT22;383;48.766;9.270;2023-08-06T05:47:09;16.80;97.20
802;DHT22;383;48.766;9.270;2023-08-06T05:49:36;17.00;97.00
802;DHT22;383;48.766;9.270;2023-08-06T05:52:04;17.20;96.70
802;DHT22;383;48.766;9.270;2023-08-06T05:54:33;17.30;94.90
802;DHT22;383;48.766;9.270;2023-08-06T05:57:01;17.30;92.90
802;DHT22;383;48.766;9.270;2023-08-06T05:59:28;17.50;91.50
802;DHT22;383;48.766;9.270;2023-08-06T06:01:55;17.50;91.80
802;DHT22;383;48.766;9.270;2023-08-06T06:04:22;17.60;92.30
802;DHT22;383;48.766;9.270;2023-08-06T06:06:48;17.60;91.20
802;DHT22;383;48.766;9.270;2023-08-06T06:09:15;17.50;90.70
802;DHT22;383;48.766;9.270;2023-08-06T06:11:42;17.60;91.50
802;DHT22;383;48.766;9.270;2023-08-06T06:14:10;17.60;91.80
802;DHT22;383;48.766;9.270;2023-08-06T06:16:36;17.60;92.10
802;DHT22;383;48.766;9.270;2023-08-06T06:19:03;17.60;91.50
802;DHT22;383;48.766;9.270;2023-08-06T06:21:30;17.60;91.40
802;DHT22;383;48.766;9.270;2023-08-06T06:23:56;17.50;91.10
802;DHT22;383;48.766;9.270;2023-08-06T06:26:23;17.50;91.00
802;DHT22;383;48.766;9.270;2023-08-06T06:28:50;17.40;91.20
802;DHT22;383;48.766;9.270;2023-08-06T06:31:18;17.50;91.30
802;DHT22;383;48.766;9.270;2023-08-06T06:33:44;17.60;91.30
802;DHT22;383;48.766;9.270;2023-08-06T06:36:11;17.70;90.20
802;DHT22;383;48.766;9.270;2023-08-06T06:38:38;17.70;90.30
802;DHT22;383;48.766;9.270;2023-08-06T06:41:05;17.60;90.40
802;DHT22;383;48.766;9.270;2023-08-06T06:43:32;17.70;90.40
802;DHT22;383;48.766;9.270;2023-08-06T06:45:59;17.70;90.30
802;DHT22;383;48.766;9.270;2023-08-06T06:48:28;17.60;89.80
802;DHT22;383;48.766;9.270;2023-08-06T06:50:55;17.60;90.50
802;DHT22;383;48.766;9.270;2023-08-06T06:53:23;17.50;89.40
802;DHT22;383;48.766;9.270;2023-08-06T06:55:53;17.40;89.90
802;DHT22;383;48.766;9.270;2023-08-06T06:58:19;17.50;90.30
802;DHT22;383;48.766;9.270;2023-08-06T07:00:46;17.50;90.00
802;DHT22;383;48.766;9.270;2023-08-06T07:03:13;17.60;90.00
802;DHT22;383;48.766;9.270;2023-08-06T07:05:42;17.60;89.20
802;DHT22;383;48.766;9.270;2023-08-06T07:08:09;17.60;89.80
802;DHT22;383;48.766;9.270;2023-08-06T07:10:36;17.50;90.60
802;DHT22;383;48.766;9.270;2023-08-06T07:13:03;17.50;90.40
802;DHT22;383;48.766;9.270;2023-08-06T07:15:30;17.50;90.00
802;DHT22;383;48.766;9.270;2023-08-06T07:17:56;17.50;90.70
802;DHT22;383;48.766;9.270;2023-08-06T07:20:23;17.40;90.10
802;DHT22;383;48.766;9.270;2023-08-06T07:22:51;17.50;90.80
802;DHT22;383;48.766;9.270;2023-08-06T07:25:18;17.60;91.20
802;DHT22;383;48.766;9.270;2023-08-06T07:27:45;17.50;91.60
802;DHT22;383;48.766;9.270;2023-08-06T07:30:11;17.40;92.50
802;DHT22;383;48.766;9.270;2023-08-06T07:32:38;17.40;93.00
802;DHT22;383;48.766;9.270;2023-08-06T07:35:06;17.30;93.20
802;DHT22;383;48.766;9.270;2023-08-06T07:37:35;17.00;94.20
802;DHT22;383;48.766;9.270;2023-08-06T07:40:03;17.00;94.80
802;DHT22;383;48.766;9.270;2023-08-06T07:42:30;16.90;95.30
802;DHT22;383;48.766;9.270;2023-08-06T07:44:58;16.90;95.40
802;DHT22;383;48.766;9.270;2023-08-06T07:47:25;16.90;94.70
802;DHT22;383;48.766;9.270;2023-08-06T07:49:52;16.90;95.70
802;DHT22;383;48.766;9.270;2023-08-06T07:52:19;17.00;94.70
802;DHT22;383;48.766;9.270;2023-08-06T07:54:45;17.00;94.30
802;DHT22;383;48.766;9.270;2023-08-06T07:57:13;17.00;94.50
802;DHT22;383;48.766;9.270;2023-08-06T07:59:40;17.20;94.30
802;DHT22;383;48.766;9.270;2023-08-06T08:02:07;17.30;92.40
802;DHT22;383;48.766;9.270;2023-08-06T08:04:34;17.50;92.00
802;DHT22;383;48.766;9.270;2023-08-06T08:07:01;17.50;91.30
802;DHT22;383;48.766;9.270;2023-08-06T08:09:28;17.40;92.00
802;DHT22;383;48.766;9.270;2023-08-06T08:11:54;17.60;91.40
802;DHT22;383;48.766;9.270;2023-08-06T08:14:23;17.60;91.50
802;DHT22;383;48.766;9.270;2023-08-06T08:16:50;17.80;90.50
802;DHT22;383;48.766;9.270;2023-08-06T08:19:16;17.90;90.10
802;DHT22;383;48.766;9.270;2023-08-06T08:21:43;18.00;90.20
802;DHT22;383;48.766;9.270;2023-08-06T08:24:10;18.10;88.90
802;DHT22;383;48.766;9.270;2023-08-06T08:26:36;18.30;87.10
802;DHT22;383;48.766;9.270;2023-08-06T08:29:03;18.30;87.40
802;DHT22;383;48.766;9.270;2023-08-06T08:31:31;18.40;85.90
802;DHT22;383;48.766;9.270;2023-08-06T08:34:04;18.50;86.90
802;DHT22;383;48.766;9.270;2023-08-06T08:36:31;18.60;88.40
802;DHT22;383;48.766;9.270;2023-08-06T08:38:57;18.80;87.10
802;DHT22;383;48.766;9.270;2023-08-06T08:41:24;18.80;86.70
802;DHT22;383;48.766;9.270;2023-08-06T08:43:52;18.90;84.80
802;DHT22;383;48.766;9.270;2023-08-06T08:46:19;19.00;85.60
802;DHT22;383;48.766;9.270;2023-08-06T08:48:47;19.20;84.80
802;DHT22;383;48.766;9.270;2023-08-06T08:51:15;19.30;84.70
802;DHT22;383;48.766;9.270;2023-08-06T08:53:44;19.40;83.60
802;DHT22;383;48.766;9.270;2023-08-06T08:56:13;19.50;83.40
802;DHT22;383;48.766;9.270;2023-08-06T08:58:40;19.40;80.80
802;DHT22;383;48.766;9.270;2023-08-06T09:01:07;19.50;82.00
802;DHT22;383;48.766;9.270;2023-08-06T09:03:36;19.60;81.50
802;DHT22;383;48.766;9.270;2023-08-06T09:06:04;19.60;82.00
802;DHT22;383;48.766;9.270;2023-08-06T09:08:36;19.40;80.60
802;DHT22;383;48.766;9.270;2023-08-06T09:11:04;19.20;81.80
802;DHT22;383;48.766;9.270;2023-08-06T09:13:31;19.10;83.70
802;DHT22;383;48.766;9.270;2023-08-06T09:15:59;19.20;85.30
802;DHT22;383;48.766;9.270;2023-08-06T09:18:26;19.20;87.10
802;DHT22;383;48.766;9.270;2023-08-06T09:20:53;19.20;86.90
802;DHT22;383;48.766;9.270;2023-08-06T09:23:27;18.90;86.00
802;DHT22;383;48.766;9.270;2023-08-06T09:25:55;18.80;87.20
802;DHT22;383;48.766;9.270;2023-08-06T09:28:21;18.80;87.30
802;DHT22;383;48.766;9.270;2023-08-06T09:30:50;18.80;85.60
802;DHT22;383;48.766;9.270;2023-08-06T09:33:18;18.90;85.20
802;DHT22;383;48.766;9.270;2023-08-06T09:35:46;19.00;86.40
802;DHT22;383;48.766;9.270;2023-08-06T09:38:13;19.10;85.10
802;DHT22;383;48.766;9.270;2023-08-06T09:40:41;19.20;86.30
802;DHT22;383;48.766;9.270;2023-08-06T09:43:08;19.40;83.90
802;DHT22;383;48.766;9.270;2023-08-06T09:45:36;19.40;83.70
802;DHT22;383;48.766;9.270;2023-08-06T09:48:04;19.30;83.10
802;DHT22;383;48.766;9.270;2023-08-06T09:50:34;19.20;84.10
802;DHT22;383;48.766;9.270;2023-08-06T09:53:02;19.20;84.40
802;DHT22;383;48.766;9.270;2023-08-06T09:55:30;19.20;84.90
802;DHT22;383;48.766;9.270;2023-08-06T09:57:58;19.40;84.70
802;DHT22;383;48.766;9.270;2023-08-06T10:00:25;19.60;84.30
802;DHT22;383;48.766;9.270;2023-08-06T10:02:53;19.60;82.80
802;DHT22;383;48.766;9.270;2023-08-06T10:05:21;19.60;82.30
802;DHT22;383;48.766;9.270;2023-08-06T10:07:49;19.70;82.40
802;DHT22;383;48.766;9.270;2023-08-06T10:10:16;19.70;80.80
802;DHT22;383;48.766;9.270;2023-08-06T10:12:46;19.70;82.60
802;DHT22;383;48.766;9.270;2023-08-06T10:15:17;19.80;83.60
802;DHT22;383;48.766;9.270;2023-08-06T10:17:45;19.70;83.10
802;DHT22;383;48.766;9.270;2023-08-06T10:20:13;19.70;83.00
802;DHT22;383;48.766;9.270;2023-08-06T10:22:42;19.40;84.70
802;DHT22;383;48.766;9.270;2023-08-06T10:25:10;19.30;87.10
802;DHT22;383;48.766;9.270;2023-08-06T10:27:41;19.20;88.60
802;DHT22;383;48.766;9.270;2023-08-06T10:30:24;19.30;87.30
802;DHT22;383;48.766;9.270;2023-08-06T10:32:52;19.40;87.70
802;DHT22;383;48.766;9.270;2023-08-06T10:35:34;19.40;87.40
802;DHT22;383;48.766;9.270;2023-08-06T10:38:07;19.00;88.20
802;DHT22;383;48.766;9.270;2023-08-06T10:40:34;18.80;90.50
802;DHT22;383;48.766;9.270;2023-08-06T10:43:02;18.70;89.80
802;DHT22;383;48.766;9.270;2023-08-06T10:45:34;18.70;91.30
802;DHT22;383;48.766;9.270;2023-08-06T10:48:02;18.70;90.70
802;DHT22;383;48.766;9.270;2023-08-06T10:50:28;18.60;91.90
802;DHT22;383;48.766;9.270;2023-08-06T10:52:57;18.70;91.70
802;DHT22;383;48.766;9.270;2023-08-06T10:55:25;18.80;91.10
802;DHT22;383;48.766;9.270;2023-08-06T10:57:52;18.90;91.50
802;DHT22;383;48.766;9.270;2023-08-06T11:00:18;19.10;90.80
802;DHT22;383;48.766;9.270;2023-08-06T11:02:48;19.10;89.90
802;DHT22;383;48.766;9.270;2023-08-06T11:05:15;19.20;89.40
802;DHT22;383;48.766;9.270;2023-08-06T11:07:42;19.20;85.70
802;DHT22;383;48.766;9.270;2023-08-06T11:10:11;18.90;88.20
802;DHT22;383;48.766;9.270;2023-08-06T11:12:38;18.60;87.60
802;DHT22;383;48.766;9.270;2023-08-06T11:15:06;18.50;89.00
802;DHT22;383;48.766;9.270;2023-08-06T11:17:34;18.50;90.00
802;DHT22;383;48.766;9.270;2023-08-06T11:20:03;18.50;89.00
802;DHT22;383;48.766;9.270;2023-08-06T11:22:30;18.40;90.00
802;DHT22;383;48.766;9.270;2023-08-06T11:24:57;18.40;89.40
802;DHT22;383;48.766;9.270;2023-08-06T11:27:27;18.50;87.60
802;DHT22;383;48.766;9.270;2023-08-06T11:29:54;18.30;85.70
802;DHT22;383;48.766;9.270;2023-08-06T11:32:21;18.20;85.60
802;DHT22;383;48.766;9.270;2023-08-06T11:34:48;17.80;86.80
802;DHT22;383;48.766;9.270;2023-08-06T11:37:16;17.80;89.30
802;DHT22;383;48.766;9.270;2023-08-06T11:39:46;17.80;90.30
802;DHT22;383;48.766;9.270;2023-08-06T11:42:13;17.90;89.80
802;DHT22;383;48.766;9.270;2023-08-06T11:44:41;18.00;89.00
802;DHT22;383;48.766;9.270;2023-08-06T11:47:12;18.00;87.10
802;DHT22;383;48.766;9.270;2023-08-06T11:49:41;18.00;88.10
802;DHT22;383;48.766;9.270;2023-08-06T11:52:18;18.20;88.00
802;DHT22;383;48.766;9.270;2023-08-06T11:54:47;18.20;86.50
802;DHT22;383;48.766;9.270;2023-08-06T11:57:14;18.30;86.40
802;DHT22;383;48.766;9.270;2023-08-06T11:59:41;18.20;84.50
802;DHT22;383;48.766;9.270;2023-08-06T12:02:09;18.10;83.00
802;DHT22;383;48.766;9.270;2023-08-06T12:05:02;18.10;85.20
802;DHT22;383;48.766;9.270;2023-08-06T12:10:25;18.00;86.90
802;DHT22;383;48.766;9.270;2023-08-06T12:12:52;17.90;87.10
802;DHT22;383;48.766;9.270;2023-08-06T12:15:19;17.80;87.40
802;DHT22;383;48.766;9.270;2023-08-06T12:17:46;17.80;86.80
802;DHT22;383;48.766;9.270;2023-08-06T12:20:13;17.90;87.40
802;DHT22;383;48.766;9.270;2023-08-06T12:22:41;18.00;86.80
802;DHT22;383;48.766;9.270;2023-08-06T12:25:09;18.10;86.40
802;DHT22;383;48.766;9.270;2023-08-06T12:27:38;17.90;85.20
802;DHT22;383;48.766;9.270;2023-08-06T12:30:06;18.00;84.90
802;DHT22;383;48.766;9.270;2023-08-06T12:32:34;18.10;85.20
802;DHT22;383;48.766;9.270;2023-08-06T12:35:00;17.90;84.40
802;DHT22;383;48.766;9.270;2023-08-06T12:37:28;18.00;83.90
802;DHT22;383;48.766;9.270;2023-08-06T12:39:56;17.90;83.60
802;DHT22;383;48.766;9.270;2023-08-06T12:42:23;17.90;82.80
802;DHT22;383;48.766;9.270;2023-08-06T12:44:50;17.90;84.70
802;DHT22;383;48.766;9.270;2023-08-06T12:47:17;17.90;83.10
802;DHT22;383;48.766;9.270;2023-08-06T12:49:44;17.90;82.60
802;DHT22;383;48.766;9.270;2023-08-06T12:52:11;18.00;83.20
802;DHT22;383;48.766;9.270;2023-08-06T12:54:40;18.30;83.20
802;DHT22;383;48.766;9.270;2023-08-06T12:57:09;18.50;80.60
802;DHT22;383;48.766;9.270;2023-08-06T12:59:36;18.80;81.80
802;DHT22;383;48.766;9.270;2023-08-06T13:02:03;19.00;78.90
802;DHT22;383;48.766;9.270;2023-08-06T13:04:30;19.00;76.60
802;DHT22;383;48.766;9.270;2023-08-06T13:06:57;19.20;77.30
802;DHT22;383;48.766;9.270;2023-08-06T13:09:23;19.30;78.10
802;DHT22;383;48.766;9.270;2023-08-06T13:11:51;19.10;75.80
802;DHT22;383;48.766;9.270;2023-08-06T13:14:19;19.00;78.90
802;DHT22;383;48.766;9.270;2023-08-06T13:16:46;19.10;76.70
802;DHT22;383;48.766;9.270;2023-08-06T13:19:13;19.10;76.70
802;DHT22;383;48.766;9.270;2023-08-06T13:21:59;19.30;76.20
802;DHT22;383;48.766;9.270;2023-08-06T13:24:27;19.30;74.80
802;DHT22;383;48.766;9.270;2023-08-06T13:26:54;19.40;75.20
802;DHT22;383;48.766;9.270;2023-08-06T13:29:22;19.60;75.70
802;DHT22;383;48.766;9.270;2023-08-06T13:31:49;19.70;74.40
802;DHT22;383;48.766;9.270;2023-08-06T13:34:15;19.60;73.40
802;DHT22;383;48.766;9.270;2023-08-06T13:36:43;19.60;75.40
802;DHT22;383;48.766;9.270;2023-08-06T13:39:10;19.70;73.00
802;DHT22;383;48.766;9.270;2023-08-06T13:41:40;19.60;74.40
802;DHT22;383;48.766;9.270;2023-08-06T13:44:06;19.70;73.30
802;DHT22;383;48.766;9.270;2023-08-06T13:46:34;19.80;72.00
802;DHT22;383;48.766;9.270;2023-08-06T13:49:01;19.90;72.10
802;DHT22;383;48.766;9.270;2023-08-06T13:51:33;19.90;71.20
802;DHT22;383;48.766;9.270;2023-08-06T13:54:01;19.70;71.90
802;DHT22;383;48.766;9.270;2023-08-06T13:56:28;19.60;71.50
802;DHT22;383;48.766;9.270;2023-08-06T13:58:55;19.40;71.60
802;DHT22;383;48.766;9.270;2023-08-06T14:01:21;19.30;72.60
802;DHT22;383;48.766;9.270;2023-08-06T14:03:49;19.30;72.40
802;DHT22;383;48.766;9.270;2023-08-06T14:06:16;19.40;72.80
802;DHT22;383;48.766;9.270;2023-08-06T14:08:43;19.40;72.60
802;DHT22;383;48.766;9.270;2023-08-06T14:11:09;19.40;71.30
802;DHT22;383;48.766;9.270;2023-08-06T14:13:36;19.30;72.10
802;DHT22;383;48.766;9.270;2023-08-06T14:16:03;19.40;73.00
802;DHT22;383;48.766;9.270;2023-08-06T14:18:29;19.40;72.50
802;DHT22;383;48.766;9.270;2023-08-06T14:20:57;19.20;72.50
802;DHT22;383;48.766;9.270;2023-08-06T14:23:24;19.10;72.80
802;DHT22;383;48.766;9.270;2023-08-06T14:25:51;19.10;71.30
802;DHT22;383;48.766;9.270;2023-08-06T14:28:17;19.00;72.60
802;DHT22;383;48.766;9.270;2023-08-06T14:30:44;18.90;70.40
802;DHT22;383;48.766;9.270;2023-08-06T14:33:11;18.90;72.60
802;DHT22;383;48.766;9.270;2023-08-06T14:35:37;18.90;72.60
802;DHT22;383;48.766;9.270;2023-08-06T14:38:06;18.90;71.90
802;DHT22;383;48.766;9.270;2023-08-06T14:40:33;18.80;73.80
802;DHT22;383;48.766;9.270;2023-08-06T14:43:03;18.90;74.80
802;DHT22;383;48.766;9.270;2023-08-06T14:45:30;18.90;72.90
802;DHT22;383;48.766;9.270;2023-08-06T14:47:56;18.90;72.00
802;DHT22;383;48.766;9.270;2023-08-06T14:50:23;18.70;72.60
802;DHT22;383;48.766;9.270;2023-08-06T14:52:50;18.80;73.80
802;DHT22;383;48.766;9.270;2023-08-06T14:55:27;18.60;75.30
802;DHT22;383;48.766;9.270;2023-08-06T14:57:54;18.40;77.00
802;DHT22;383;48.766;9.270;2023-08-06T15:00:20;18.30;78.10
802;DHT22;383;48.766;9.270;2023-08-06T15:02:47;18.30;77.40
802;DHT22;383;48.766;9.270;2023-08-06T15:05:36;18.30;79.40
802;DHT22;383;48.766;9.270;2023-08-06T15:08:24;18.30;80.70
802;DHT22;383;48.766;9.270;2023-08-06T15:11:14;18.20;80.20
802;DHT22;383;48.766;9.270;2023-08-06T15:14:11;18.10;80.30
802;DHT22;383;48.766;9.270;2023-08-06T15:16:40;18.20;81.80
802;DHT22;383;48.766;9.270;2023-08-06T15:19:07;18.10;81.60
802;DHT22;383;48.766;9.270;2023-08-06T15:21:33;18.20;82.60
802;DHT22;383;48.766;9.270;2023-08-06T15:24:00;18.40;81.20
802;DHT22;383;48.766;9.270;2023-08-06T15:26:28;18.50;79.40
802;DHT22;383;48.766;9.270;2023-08-06T15:28:55;18.70;78.30
802;DHT22;383;48.766;9.270;2023-08-06T15:31:22;18.70;77.90
802;DHT22;383;48.766;9.270;2023-08-06T15:33:49;18.90;77.40
802;DHT22;383;48.766;9.270;2023-08-06T15:36:15;18.90;76.00
802;DHT22;383;48.766;9.270;2023-08-06T15:38:42;18.90;76.50
802;DHT22;383;48.766;9.270;2023-08-06T15:41:09;19.10;76.50
802;DHT22;383;48.766;9.270;2023-08-06T15:43:37;19.10;75.20
802;DHT22;383;48.766;9.270;2023-08-06T15:46:03;19.20;75.80
802;DHT22;383;48.766;9.270;2023-08-06T15:48:30;19.30;74.40
802;DHT22;383;48.766;9.270;2023-08-06T15:50:57;19.30;73.60
802;DHT22;383;48.766;9.270;2023-08-06T15:53:24;19.10;74.10
802;DHT22;383;48.766;9.270;2023-08-06T15:55:51;19.20;74.90
802;DHT22;383;48.766;9.270;2023-08-06T15:58:17;19.30;72.90
802;DHT22;383;48.766;9.270;2023-08-06T16:00:45;19.20;73.60
802;DHT22;383;48.766;9.270;2023-08-06T16:03:12;19.10;73.20
802;DHT22;383;48.766;9.270;2023-08-06T16:05:39;19.10;74.80
802;DHT22;383;48.766;9.270;2023-08-06T16:08:06;19.20;74.90
802;DHT22;383;48.766;9.270;2023-08-06T16:10:39;19.20;73.70
802;DHT22;383;48.766;9.270;2023-08-06T16:13:09;19.20;72.00
802;DHT22;383;48.766;9.270;2023-08-06T16:15:36;19.20;72.50
802;DHT22;383;48.766;9.270;2023-08-06T16:18:04;19.30;71.90
802;DHT22;383;48.766;9.270;2023-08-06T16:20:31;19.10;71.20
802;DHT22;383;48.766;9.270;2023-08-06T16:22:57;19.00;71.70
802;DHT22;383;48.766;9.270;2023-08-06T16:25:24;18.90;71.70
802;DHT22;383;48.766;9.270;2023-08-06T16:27:51;18.70;71.60
802;DHT22;383;48.766;9.270;2023-08-06T16:30:18;18.70;72.90
802;DHT22;383;48.766;9.270;2023-08-06T16:32:46;18.90;71.20
802;DHT22;383;48.766;9.270;2023-08-06T16:35:14;19.00;71.20
802;DHT22;383;48.766;9.270;2023-08-06T16:37:45;19.00;71.10
802;DHT22;383;48.766;9.270;2023-08-06T16:40:12;19.00;71.10